createdAt,value
2023-11-15T00:01:39.354Z,1.00
2023-11-15T00:04:06.786Z,1.00
2023-11-15T00:06:34.432Z,1.00
2023-11-15T00:09:01.573Z,1.00
2023-11-15T00:11:29.119Z,1.00
2023-11-15T00:13:57.457Z,1.00
2023-11-15T00:16:25.299Z,1.00
2023-11-15T00:18:52.802Z,1.00
2023-11-15T00:21:20.466Z,1.00
2023-11-15T00:23:47.588Z,1.00
2023-11-15T00:26:15.413Z,1.00
2023-11-15T00:28:42.879Z,3.90
2023-11-15T00:31:10.693Z,4.90
2023-11-15T00:33:38.652Z,11.80
2023-11-15T00:36:07.132Z,21.00
2023-11-15T00:38:35.873Z,25.10
2023-11-15T00:41:04.982Z,41.80
2023-11-15T00:43:32.200Z,68.10
2023-11-15T00:45:59.996Z,86.30
2023-11-15T00:48:27.243Z,95.40
2023-11-15T00:50:54.974Z,99.90
2023-11-15T00:53:22.254Z,99.90
2023-11-15T00:55:49.941Z,99.90
2023-11-15T00:58:18.935Z,99.90
2023-11-15T01:00:49.169Z,99.90
2023-11-15T01:03:27.647Z,99.90
2023-11-15T01:05:56.657Z,99.90
2023-11-15T01:08:24.809Z,99.90
2023-11-15T01:10:56.022Z,99.90
2023-11-15T01:13:24.738Z,99.90
2023-11-15T01:15:52.677Z,99.90
2023-11-15T01:18:22.005Z,99.90
2023-11-15T01:20:50.618Z,99.90
2023-11-15T01:23:18.348Z,99.90
2023-11-15T01:25:45.938Z,99.90
2023-11-15T01:28:13.389Z,99.90
2023-11-15T01:30:41.083Z,99.90
2023-11-15T01:33:08.390Z,99.90
2023-11-15T01:35:37.339Z,99.90
2023-11-15T01:38:04.544Z,99.90
2023-11-15T01:40:35.601Z,99.90
2023-11-15T01:43:03.073Z,99.90
2023-11-15T01:45:30.883Z,99.90
2023-11-15T01:47:58.212Z,99.90
2023-11-15T01:50:26.105Z,99.90
2023-11-15T01:52:53.409Z,99.90
2023-11-15T01:55:22.309Z,99.90
2023-11-15T01:57:50.637Z,99.90
2023-11-15T02:00:18.886Z,99.90
2023-11-15T02:02:46.235Z,99.90
2023-11-15T02:05:14.740Z,99.90
2023-11-15T02:07:44.063Z,99.90
2023-11-15T02:10:14.969Z,99.90
2023-11-15T02:12:42.171Z,99.90
2023-11-15T02:15:10.041Z,99.90
2023-11-15T02:17:37.263Z,99.90
2023-11-15T02:20:09.913Z,99.90
2023-11-15T02:22:48.156Z,99.90
2023-11-15T02:25:16.699Z,99.90
2023-11-15T02:27:45.026Z,99.90
2023-11-15T02:30:12.972Z,99.90
2023-11-15T02:32:42.704Z,99.90
2023-11-15T02:35:10.741Z,99.90
2023-11-15T02:37:37.922Z,99.90
2023-11-15T02:40:06.612Z,99.90
2023-11-15T02:42:34.267Z,99.90
2023-11-15T02:45:02.082Z,99.90
2023-11-15T02:47:29.228Z,99.90
2023-11-15T02:49:56.773Z,99.90
2023-11-15T02:52:23.970Z,99.90
2023-11-15T02:54:52.816Z,99.90
2023-11-15T02:57:19.943Z,99.90
2023-11-15T02:59:47.464Z,99.90
2023-11-15T03:02:15.620Z,99.90
2023-11-15T03:04:43.212Z,99.90
2023-11-15T03:07:10.423Z,99.90
2023-11-15T03:09:38.255Z,99.90
2023-11-15T03:12:05.736Z,99.90
2023-11-15T03:14:33.513Z,99.90
2023-11-15T03:17:15.454Z,99.90
2023-11-15T03:19:42.932Z,99.90
2023-11-15T03:22:10.071Z,99.90
2023-11-15T03:24:39.184Z,99.90
2023-11-15T03:27:07.520Z,99.90
2023-11-15T03:29:35.178Z,99.90
2023-11-15T03:32:02.312Z,99.90
2023-11-15T03:34:30.340Z,99.90
2023-11-15T03:36:59.283Z,99.90
2023-11-15T03:39:27.571Z,99.90
2023-11-15T03:41:54.785Z,99.90
2023-11-15T03:44:22.995Z,99.90
2023-11-15T03:46:50.181Z,99.90
2023-11-15T03:49:17.649Z,99.90
2023-11-15T03:51:44.698Z,99.90
2023-11-15T03:54:12.461Z,99.90
2023-11-15T03:56:39.610Z,99.90
2023-11-15T03:59:07.049Z,99.90
2023-11-15T04:01:35.812Z,99.90
2023-11-15T04:04:05.390Z,99.90
2023-11-15T04:06:32.588Z,99.90
2023-11-15T04:09:00.514Z,99.90
2023-11-15T04:11:27.811Z,99.90
2023-11-15T04:13:55.335Z,99.90
2023-11-15T04:16:22.479Z,99.90
2023-11-15T04:18:49.903Z,99.90
2023-11-15T04:21:17.210Z,99.90
2023-11-15T04:23:45.917Z,99.90
2023-11-15T04:26:13.198Z,99.90
2023-11-15T04:28:40.937Z,99.90
2023-11-15T04:31:08.039Z,99.90
2023-11-15T04:33:35.623Z,99.90
2023-11-15T04:36:03.127Z,99.90
2023-11-15T04:38:30.636Z,99.90
2023-11-15T04:40:57.900Z,99.90
2023-11-15T04:43:25.636Z,99.90
2023-11-15T04:45:53.761Z,99.90
2023-11-15T04:48:21.274Z,99.90
2023-11-15T04:50:48.571Z,99.90
2023-11-15T04:53:15.985Z,99.90
2023-11-15T04:55:43.225Z,99.90
2023-11-15T04:58:11.075Z,99.90
2023-11-15T05:00:38.217Z,99.90
2023-11-15T05:03:05.761Z,99.90
2023-11-15T05:05:33.042Z,99.90
2023-11-15T05:08:00.895Z,99.90
2023-11-15T05:10:28.048Z,99.90
2023-11-15T05:12:55.370Z,99.90
2023-11-15T05:15:22.629Z,99.90
2023-11-15T05:17:50.105Z,99.90
2023-11-15T05:20:17.737Z,99.90
2023-11-15T05:22:45.412Z,99.90
2023-11-15T05:25:12.549Z,99.90
2023-11-15T05:27:40.752Z,99.90
2023-11-15T05:30:08.405Z,99.90
2023-11-15T05:32:37.398Z,99.90
2023-11-15T05:35:05.407Z,99.90
2023-11-15T05:37:32.848Z,99.90
2023-11-15T05:40:01.798Z,99.90
2023-11-15T05:42:29.507Z,99.90
2023-11-15T05:44:56.624Z,99.90
2023-11-15T05:47:27.428Z,99.90
2023-11-15T05:49:55.525Z,99.90
2023-11-15T05:52:23.396Z,99.90
2023-11-15T05:54:50.541Z,99.90
2023-11-15T05:57:18.308Z,99.90
2023-11-15T05:59:45.526Z,99.90
2023-11-15T06:02:12.974Z,99.90
2023-11-15T06:04:40.130Z,99.90
2023-11-15T06:07:07.923Z,99.90
2023-11-15T06:09:35.103Z,99.90
2023-11-15T06:12:02.594Z,99.90
2023-11-15T06:14:29.810Z,99.90
2023-11-15T06:16:58.598Z,99.90
2023-11-15T06:19:25.650Z,99.90
2023-11-15T06:21:53.226Z,99.90
2023-11-15T06:24:20.523Z,99.90
2023-11-15T06:26:52.553Z,99.90
2023-11-15T06:29:25.969Z,99.90
2023-11-15T06:31:54.903Z,99.90
2023-11-15T06:34:21.991Z,99.90
2023-11-15T06:36:49.576Z,99.90
2023-11-15T06:39:19.718Z,99.90
2023-11-15T06:41:47.220Z,99.90
2023-11-15T06:44:14.288Z,99.90
2023-11-15T06:46:41.712Z,99.90
2023-11-15T06:49:12.168Z,99.90
2023-11-15T06:51:40.643Z,99.90
2023-11-15T06:54:08.228Z,99.90
2023-11-15T06:56:35.933Z,99.90
2023-11-15T06:59:03.605Z,99.90
2023-11-15T07:01:31.679Z,99.90
2023-11-15T07:03:59.567Z,99.90
2023-11-15T07:06:28.322Z,99.90
2023-11-15T07:08:56.902Z,99.90
2023-11-15T07:11:24.330Z,99.90
2023-11-15T07:13:51.589Z,99.90
2023-11-15T07:16:21.399Z,99.90
2023-11-15T07:18:49.378Z,99.90
2023-11-15T07:21:17.053Z,99.90
2023-11-15T07:23:44.245Z,99.90
2023-11-15T07:26:14.702Z,99.90
2023-11-15T07:28:43.471Z,99.90
2023-11-15T07:31:14.876Z,99.90
2023-11-15T07:33:42.259Z,99.90
2023-11-15T07:36:10.507Z,99.90
2023-11-15T07:38:37.780Z,99.90
2023-11-15T07:41:06.012Z,99.90
2023-11-15T07:43:33.338Z,99.90
2023-11-15T07:46:00.861Z,99.90
2023-11-15T07:48:28.544Z,99.90
2023-11-15T07:50:57.539Z,99.90
2023-11-15T07:53:25.852Z,99.90
2023-11-15T07:55:54.032Z,99.90
2023-11-15T07:58:21.143Z,99.90
2023-11-15T08:00:49.178Z,99.90
2023-11-15T08:03:17.396Z,99.90
2023-11-15T08:05:45.231Z,99.90
2023-11-15T08:08:12.521Z,99.90
2023-11-15T08:10:43.473Z,99.90
2023-11-15T08:13:10.633Z,99.90
2023-11-15T08:15:39.954Z,99.90
2023-11-15T08:18:07.232Z,99.90
2023-11-15T08:20:35.030Z,99.90
2023-11-15T08:23:03.533Z,99.90
2023-11-15T08:25:32.626Z,99.90
2023-11-15T08:28:02.938Z,99.90
2023-11-15T08:30:31.851Z,99.90
2023-11-15T08:32:59.217Z,99.90
2023-11-15T08:35:27.521Z,99.90
2023-11-15T08:37:54.731Z,99.90
2023-11-15T08:40:28.830Z,99.90
2023-11-15T08:42:58.152Z,99.90
2023-11-15T08:45:27.005Z,99.90
2023-11-15T08:47:58.627Z,99.90
2023-11-15T08:50:26.927Z,99.90
2023-11-15T08:52:55.697Z,99.90
2023-11-15T08:55:23.137Z,99.90
2023-11-15T08:57:50.278Z,99.90
2023-11-15T09:00:19.473Z,99.90
2023-11-15T09:02:48.420Z,99.90
2023-11-15T09:05:17.365Z,99.90
2023-11-15T09:07:45.543Z,99.90
2023-11-15T09:10:14.977Z,99.90
2023-11-15T09:12:43.406Z,99.90
2023-11-15T09:15:14.567Z,99.90
2023-11-15T09:17:49.809Z,99.90
2023-11-15T09:20:22.508Z,99.90
2023-11-15T09:22:49.948Z,99.90
2023-11-15T09:25:31.812Z,99.90
2023-11-15T09:28:00.955Z,99.90
2023-11-15T09:30:29.933Z,99.90
2023-11-15T09:32:57.198Z,99.90
2023-11-15T09:35:32.617Z,99.90
2023-11-15T09:38:00.149Z,99.90
2023-11-15T09:40:28.619Z,99.90
2023-11-15T09:43:02.534Z,99.90
2023-11-15T09:45:33.472Z,99.90
2023-11-15T09:48:03.413Z,99.90
2023-11-15T09:50:35.013Z,99.90
2023-11-15T09:53:07.172Z,81.90
2023-11-15T09:55:35.060Z,45.20
2023-11-15T09:58:02.374Z,5.00
2023-11-15T10:00:33.718Z,47.20
2023-11-15T10:03:01.985Z,37.20
2023-11-15T10:05:29.767Z,53.60
2023-11-15T10:08:09.959Z,60.00
2023-11-15T10:10:39.185Z,35.80
2023-11-15T10:13:17.254Z,59.20
2023-11-15T10:15:46.530Z,67.70
2023-11-15T10:18:31.309Z,38.80
2023-11-15T10:21:09.431Z,29.60
2023-11-15T10:23:38.993Z,51.60
2023-11-15T10:26:07.648Z,49.60
2023-11-15T10:28:40.591Z,37.50
2023-11-15T10:31:13.812Z,1.00
2023-11-15T10:33:47.189Z,1.00
2023-11-15T10:36:23.105Z,1.00
2023-11-15T10:38:52.851Z,1.00
2023-11-15T10:41:23.320Z,1.00
2023-11-15T10:43:52.520Z,1.00
2023-11-15T10:46:32.300Z,1.00
2023-11-15T10:49:01.653Z,1.00
2023-11-15T10:51:43.807Z,1.00
2023-11-15T10:54:14.576Z,1.00
2023-11-15T10:56:43.313Z,1.00
2023-11-15T10:59:11.983Z,2.20
2023-11-15T11:01:39.608Z,22.30
2023-11-15T11:04:12.564Z,34.70
2023-11-15T11:07:06.135Z,67.10
2023-11-15T11:09:49.592Z,82.90
2023-11-15T11:12:19.584Z,91.10
2023-11-15T11:14:47.520Z,92.30
2023-11-15T11:17:37.720Z,99.10
2023-11-15T11:20:28.301Z,99.90
2023-11-15T11:23:12.989Z,99.90
2023-11-15T11:25:40.814Z,99.90
2023-11-15T11:28:14.360Z,99.90
2023-11-15T11:30:42.942Z,99.90
2023-11-15T11:33:16.984Z,99.90
2023-11-15T11:35:47.386Z,99.90
2023-11-15T11:38:41.698Z,99.90
2023-11-15T11:41:10.118Z,99.90
2023-11-15T11:43:38.637Z,99.90
2023-11-15T11:46:17.487Z,99.90
2023-11-15T11:48:45.477Z,99.90
2023-11-15T11:51:12.881Z,99.90
2023-11-15T11:53:46.367Z,99.90
2023-11-15T11:56:15.445Z,99.90
2023-11-15T11:58:43.834Z,99.90
2023-11-15T12:01:12.912Z,99.90
2023-11-15T12:03:47.130Z,99.90
2023-11-15T12:06:14.646Z,99.90
2023-11-15T12:08:51.121Z,99.90
2023-11-15T12:11:23.429Z,99.90
2023-11-15T12:13:53.789Z,99.90
2023-11-15T12:16:21.211Z,99.90
2023-11-15T12:19:02.852Z,99.90
2023-11-15T12:21:36.707Z,99.90
2023-11-15T12:24:10.833Z,99.90
2023-11-15T12:26:46.064Z,99.90
2023-11-15T12:29:25.148Z,99.90
2023-11-15T12:31:54.896Z,99.90
2023-11-15T12:34:23.802Z,99.90
2023-11-15T12:36:51.683Z,99.90
2023-11-15T12:39:23.055Z,99.90
2023-11-15T12:41:52.378Z,99.90
2023-11-15T12:44:21.414Z,99.90
2023-11-15T12:46:53.045Z,99.90
2023-11-15T12:49:24.368Z,99.90
2023-11-15T12:51:53.096Z,99.90
2023-11-15T12:54:20.639Z,99.90
2023-11-15T12:57:06.154Z,99.90
2023-11-15T12:59:37.625Z,99.90
2023-11-15T13:02:05.912Z,99.90
2023-11-15T13:04:50.842Z,99.90
2023-11-15T13:07:18.492Z,99.90
2023-11-15T13:09:46.667Z,99.90
2023-11-15T13:12:32.001Z,99.90
2023-11-15T13:14:59.582Z,99.90
2023-11-15T13:17:28.586Z,99.90
2023-11-15T13:20:00.743Z,99.90
2023-11-15T13:22:30.136Z,99.90
2023-11-15T13:24:57.983Z,99.90
2023-11-15T13:27:25.181Z,99.90
2023-11-15T13:29:52.653Z,99.90
2023-11-15T13:32:20.684Z,99.90
2023-11-15T13:34:51.607Z,99.90
2023-11-15T13:37:19.513Z,99.90
2023-11-15T13:39:47.454Z,99.90
2023-11-15T13:42:14.594Z,99.90
2023-11-15T13:44:42.135Z,99.90
2023-11-15T13:47:09.440Z,99.90
2023-11-15T13:49:39.276Z,99.90
2023-11-15T13:52:06.646Z,99.90
2023-11-15T13:54:34.106Z,99.90
2023-11-15T13:57:01.250Z,99.90
2023-11-15T13:59:32.946Z,99.90
2023-11-15T14:02:00.108Z,99.90
2023-11-15T14:04:27.567Z,99.90
2023-11-15T14:06:55.854Z,99.90
2023-11-15T14:09:23.479Z,99.90
2023-11-15T14:11:51.457Z,99.90
2023-11-15T14:14:19.332Z,99.90
2023-11-15T14:16:47.120Z,99.90
2023-11-15T14:19:15.874Z,99.90
2023-11-15T14:21:45.548Z,99.90
2023-11-15T14:24:13.068Z,99.90
2023-11-15T14:26:41.129Z,99.90
2023-11-15T14:29:09.888Z,99.90
2023-11-15T14:31:39.004Z,99.90
2023-11-15T14:34:08.646Z,99.90
2023-11-15T14:36:38.564Z,99.90
2023-11-15T14:39:08.813Z,99.90
2023-11-15T14:41:36.034Z,95.70
2023-11-15T14:44:05.071Z,92.90
2023-11-15T14:46:32.404Z,79.60
2023-11-15T14:49:04.986Z,79.30
2023-11-15T14:51:32.206Z,77.60
2023-11-15T14:54:02.208Z,79.20
2023-11-15T14:56:29.649Z,82.60
2023-11-15T14:58:59.445Z,82.30
2023-11-15T15:01:28.488Z,83.60
2023-11-15T15:03:56.863Z,79.80
2023-11-15T15:06:24.245Z,92.90
2023-11-15T15:08:52.023Z,91.40
2023-11-15T15:11:19.304Z,91.60
2023-11-15T15:13:47.050Z,76.00
2023-11-15T15:16:16.332Z,72.50
2023-11-15T15:18:44.173Z,77.70
2023-11-15T15:21:11.489Z,68.40
2023-11-15T15:23:39.075Z,73.80
2023-11-15T15:26:06.486Z,55.70
2023-11-15T15:28:34.555Z,57.00
2023-11-15T15:31:01.671Z,56.50
2023-11-15T15:33:29.231Z,54.10
2023-11-15T15:35:58.151Z,52.00
2023-11-15T15:38:26.969Z,58.70
2023-11-15T15:40:54.086Z,55.10
2023-11-15T15:43:21.612Z,59.30
2023-11-15T15:45:48.810Z,54.40
2023-11-15T15:48:16.766Z,61.50
2023-11-15T15:50:45.087Z,55.40
2023-11-15T15:53:12.777Z,59.30
2023-11-15T15:55:39.860Z,57.50
2023-11-15T15:58:07.614Z,60.50
2023-11-15T16:00:34.856Z,61.50
2023-11-15T16:03:02.783Z,60.50
2023-11-15T16:05:29.983Z,61.40
2023-11-15T16:07:58.134Z,60.80
2023-11-15T16:10:25.567Z,67.80
2023-11-15T16:12:53.015Z,75.40
2023-11-15T16:15:21.001Z,80.00
2023-11-15T16:17:50.266Z,84.10
2023-11-15T16:20:18.747Z,88.20
2023-11-15T16:22:46.471Z,89.60
2023-11-15T16:25:13.666Z,90.50
2023-11-15T16:27:41.732Z,92.40
2023-11-15T16:30:15.281Z,94.60
2023-11-15T16:32:43.701Z,94.00
2023-11-15T16:35:11.131Z,95.50
2023-11-15T16:37:42.766Z,97.70
2023-11-15T16:40:11.549Z,95.60
2023-11-15T16:42:40.351Z,93.60
2023-11-15T16:45:09.426Z,94.30
2023-11-15T16:47:40.133Z,94.40
2023-11-15T16:50:08.858Z,95.90
2023-11-15T16:52:36.446Z,95.30
2023-11-15T16:55:04.601Z,96.90
2023-11-15T16:57:32.110Z,98.30
2023-11-15T17:00:00.133Z,99.30
2023-11-15T17:02:28.097Z,99.90
2023-11-15T17:04:55.358Z,99.90
2023-11-15T17:07:23.326Z,99.90
2023-11-15T17:09:53.622Z,99.90
2023-11-15T17:12:22.397Z,99.90
2023-11-15T17:14:49.634Z,99.90
2023-11-15T17:17:17.463Z,99.90
2023-11-15T17:19:45.758Z,99.90
2023-11-15T17:22:14.621Z,99.90
2023-11-15T17:24:41.964Z,99.90
2023-11-15T17:27:09.919Z,99.90
2023-11-15T17:29:37.455Z,99.90
2023-11-15T17:32:06.292Z,97.70
2023-11-15T17:34:33.828Z,96.40
2023-11-15T17:37:01.652Z,94.20
2023-11-15T17:39:30.023Z,94.20
2023-11-15T17:41:58.726Z,95.10
2023-11-15T17:44:26.181Z,93.50
2023-11-15T17:46:53.652Z,90.70
2023-11-15T17:49:21.498Z,89.70
2023-11-15T17:51:49.824Z,86.90
2023-11-15T17:54:19.556Z,75.00
2023-11-15T17:56:47.345Z,71.90
2023-11-15T17:59:14.670Z,70.80
2023-11-15T18:01:43.210Z,65.80
2023-11-15T18:04:14.959Z,60.10
2023-11-15T18:06:42.917Z,56.20
2023-11-15T18:09:11.507Z,64.10
2023-11-15T18:11:39.531Z,63.80
2023-11-15T18:14:07.419Z,60.00
2023-11-15T18:16:35.474Z,55.60
2023-11-15T18:19:08.893Z,53.90
2023-11-15T18:21:37.014Z,53.70
2023-11-15T18:24:04.394Z,45.70
2023-11-15T18:26:33.793Z,44.90
2023-11-15T18:29:01.711Z,51.40
2023-11-15T18:31:29.916Z,58.60
2023-11-15T18:33:58.995Z,75.90
2023-11-15T18:36:27.482Z,93.60
2023-11-15T18:38:55.501Z,97.00
2023-11-15T18:41:23.017Z,98.10
2023-11-15T18:43:50.645Z,97.90
2023-11-15T18:46:18.355Z,99.80
2023-11-15T18:48:45.705Z,99.90
2023-11-15T18:51:13.598Z,99.90
2023-11-15T18:53:41.836Z,99.90
2023-11-15T18:56:09.280Z,99.90
2023-11-15T18:58:37.312Z,99.90
2023-11-15T19:01:05.180Z,99.90
2023-11-15T19:03:32.938Z,99.90
2023-11-15T19:06:00.403Z,99.90
2023-11-15T19:08:28.260Z,99.90
2023-11-15T19:10:55.953Z,99.90
2023-11-15T19:13:28.010Z,99.90
2023-11-15T19:15:55.886Z,99.90
2023-11-15T19:18:23.528Z,99.90
2023-11-15T19:20:50.920Z,99.90
2023-11-15T19:23:19.778Z,99.90
2023-11-15T19:25:47.055Z,99.90
2023-11-15T19:28:16.952Z,99.90
2023-11-15T19:30:50.227Z,99.90
2023-11-15T19:33:19.372Z,99.90
2023-11-15T19:35:47.020Z,99.90
2023-11-15T19:38:14.819Z,99.90
2023-11-15T19:40:42.007Z,99.90
2023-11-15T19:43:12.603Z,99.90
2023-11-15T19:45:40.045Z,99.90
2023-11-15T19:48:07.842Z,99.90
2023-11-15T19:50:35.187Z,99.90
2023-11-15T19:53:08.421Z,99.90
2023-11-15T19:55:37.200Z,99.90
2023-11-15T19:58:05.935Z,99.90
2023-11-15T20:00:34.309Z,99.90
2023-11-15T20:03:02.738Z,99.90
2023-11-15T20:05:29.905Z,99.90
2023-11-15T20:07:57.429Z,99.90
2023-11-15T20:10:26.349Z,99.90
2023-11-15T20:12:54.755Z,99.90
2023-11-15T20:15:22.407Z,99.90
2023-11-15T20:17:50.266Z,99.90
2023-11-15T20:20:17.536Z,99.90
2023-11-15T20:22:51.774Z,99.90
2023-11-15T20:25:20.897Z,99.90
2023-11-15T20:27:48.654Z,99.90
2023-11-15T20:30:16.205Z,99.90
2023-11-15T20:32:44.065Z,99.90
2023-11-15T20:35:14.033Z,99.90
2023-11-15T20:37:41.500Z,99.90
2023-11-15T20:40:15.867Z,99.90
2023-11-15T20:42:47.428Z,99.90
2023-11-15T20:45:15.265Z,99.90
2023-11-15T20:47:43.313Z,99.90
2023-11-15T20:50:10.689Z,99.90
2023-11-15T20:52:38.914Z,99.90
2023-11-15T20:55:09.013Z,99.90
2023-11-15T20:57:37.502Z,99.90
2023-11-15T21:00:15.666Z,99.90
2023-11-15T21:02:43.606Z,99.90
2023-11-15T21:05:12.893Z,99.90
2023-11-15T21:07:41.231Z,99.90
2023-11-15T21:10:09.205Z,99.90
2023-11-15T21:12:37.469Z,99.90
2023-11-15T21:15:06.354Z,99.90
2023-11-15T21:17:34.167Z,99.90
2023-11-15T21:20:02.640Z,99.90
2023-11-15T21:22:31.079Z,99.90
2023-11-15T21:24:59.314Z,99.90
2023-11-15T21:27:26.786Z,99.90
2023-11-15T21:29:54.101Z,99.90
2023-11-15T21:32:21.655Z,99.90
2023-11-15T21:34:49.114Z,99.90
2023-11-15T21:37:18.940Z,99.90
2023-11-15T21:39:46.684Z,99.90
2023-11-15T21:42:14.468Z,99.90
2023-11-15T21:44:44.414Z,99.90
2023-11-15T21:47:12.334Z,99.90
2023-11-15T21:49:39.438Z,99.90
2023-11-15T21:52:19.183Z,99.90
2023-11-15T21:54:47.209Z,99.90
2023-11-15T21:57:14.880Z,99.90
2023-11-15T21:59:42.013Z,99.90
2023-11-15T22:02:09.419Z,99.90
2023-11-15T22:04:36.512Z,99.90
2023-11-15T22:07:05.167Z,99.90
2023-11-15T22:09:33.042Z,99.90
2023-11-15T22:12:00.898Z,99.90
2023-11-15T22:14:28.503Z,99.90
2023-11-15T22:16:55.984Z,99.90
2023-11-15T22:19:23.264Z,99.90
2023-11-15T22:21:50.764Z,99.90
2023-11-15T22:24:17.944Z,99.90
2023-11-15T22:26:45.442Z,99.90
2023-11-15T22:29:12.603Z,99.90
2023-11-15T22:31:40.845Z,99.90
2023-11-15T22:34:08.438Z,99.90
2023-11-15T22:36:36.657Z,99.90
2023-11-15T22:39:04.039Z,99.90
2023-11-15T22:41:32.165Z,99.90
2023-11-15T22:43:59.477Z,99.90
2023-11-15T22:46:26.947Z,99.90
2023-11-15T22:48:55.319Z,99.90
2023-11-15T22:51:23.022Z,99.90
2023-11-15T22:53:50.216Z,99.90
2023-11-15T22:56:18.046Z,99.90
2023-11-15T22:58:45.167Z,99.90
2023-11-15T23:01:13.125Z,99.90
2023-11-15T23:03:41.249Z,99.90
2023-11-15T23:06:12.880Z,99.90
2023-11-15T23:08:42.974Z,99.90
2023-11-15T23:11:10.423Z,99.90
2023-11-15T23:13:37.881Z,99.90
2023-11-15T23:16:05.887Z,99.90
2023-11-15T23:18:33.218Z,99.90
2023-11-15T23:21:01.064Z,99.90
2023-11-15T23:23:28.316Z,99.90
2023-11-15T23:25:56.113Z,99.90
2023-11-15T23:28:23.805Z,99.90
2023-11-15T23:30:56.356Z,99.90
2023-11-15T23:33:23.577Z,99.90
2023-11-15T23:35:51.066Z,99.90
2023-11-15T23:38:18.253Z,99.90
2023-11-15T23:40:46.059Z,99.90
2023-11-15T23:43:13.317Z,99.90
2023-11-15T23:45:43.061Z,99.90
2023-11-15T23:48:11.129Z,99.90
2023-11-15T23:50:39.349Z,99.90
2023-11-15T23:53:07.579Z,99.90
2023-11-15T23:55:35.340Z,99.90
2023-11-15T23:58:05.536Z,99.90
